Time;durP1;ratioP1;P1;durP2;ratioP2;P2;SDS_P1;SDS_P2;PMS_P1;PMS_P2;Temp;Humidity;BMP_temperature;BMP_pressure;BME280_temperature;BME280_humidity;BME280_pressure;Samples;Min_cycle;Max_cycle;Signal;HPM_P1;HPM_P2
2023/06/27 00:01:45;;;;;;;11.87;10.70;;;23.00;99.90;;;;;;6148344;23;20765;-80
2023/06/27 00:04:11;;;;;;;12.60;11.30;;;23.00;99.90;;;;;;6147571;23;20389;-80
2023/06/27 00:06:37;;;;;;;14.60;11.40;;;23.00;99.90;;;;;;6121250;23;20407;-80
2023/06/27 00:09:05;;;;;;;12.63;11.30;;;23.00;99.90;;;;;;6148172;23;20684;-80
2023/06/27 00:11:31;;;;;;;13.80;10.87;;;22.90;99.90;;;;;;6122407;23;20206;-80
2023/06/27 00:13:58;;;;;;;13.70;11.27;;;22.90;99.90;;;;;;6120294;23;20407;-80
2023/06/27 00:16:24;;;;;;;13.63;11.10;;;22.90;99.90;;;;;;6122150;23;20181;-80
2023/06/27 00:18:50;;;;;;;14.83;12.37;;;22.90;99.90;;;;;;6121162;23;20413;-80
2023/06/27 00:21:17;;;;;;;12.20;10.57;;;22.90;99.90;;;;;;6147738;23;20404;-80
2023/06/27 00:23:43;;;;;;;13.07;11.30;;;22.80;99.90;;;;;;6148291;23;20417;-80
2023/06/27 00:26:12;;;;;;;12.83;11.60;;;22.80;99.90;;;;;;6148811;23;20413;-80
2023/06/27 00:28:37;;;;;;;12.00;10.27;;;22.70;99.90;;;;;;6148622;23;20398;-80
2023/06/27 00:31:03;;;;;;;12.10;10.90;;;22.70;99.90;;;;;;6147932;23;20500;-81
2023/06/27 00:33:29;;;;;;;11.97;10.57;;;22.60;99.90;;;;;;6146657;23;20957;-80
2023/06/27 00:35:55;;;;;;;12.40;11.10;;;22.60;99.90;;;;;;6122100;23;20193;-80
2023/06/27 00:38:20;;;;;;;12.70;11.17;;;22.50;99.90;;;;;;6123812;23;20159;-80
2023/06/27 00:40:46;;;;;;;11.93;10.80;;;22.50;99.90;;;;;;6123794;23;20262;-80
2023/06/27 00:43:11;;;;;;;12.90;11.57;;;22.50;99.90;;;;;;6149960;23;20355;-80
2023/06/27 00:45:37;;;;;;;14.17;11.03;;;22.40;99.90;;;;;;6149678;23;20597;-81
2023/06/27 00:48:03;;;;;;;12.10;10.53;;;22.40;99.90;;;;;;6149472;23;20257;-80
2023/06/27 00:50:30;;;;;;;12.40;11.30;;;22.30;99.90;;;;;;6122713;23;20193;-81
2023/06/27 00:52:59;;;;;;;12.07;10.90;;;22.30;99.90;;;;;;6123064;23;20225;-80
2023/06/27 00:55:25;;;;;;;12.10;11.00;;;22.30;99.90;;;;;;6122406;23;20403;-80
2023/06/27 00:57:51;;;;;;;12.90;10.27;;;22.20;99.90;;;;;;6149580;23;20456;-80
2023/06/27 01:00:17;;;;;;;11.60;10.50;;;22.20;99.90;;;;;;6149575;23;20381;-80
2023/06/27 01:02:45;;;;;;;16.67;12.07;;;22.10;99.90;;;;;;6123172;23;20191;-80
2023/06/27 01:05:13;;;;;;;12.80;11.50;;;22.10;99.90;;;;;;6123635;23;20531;-80
2023/06/27 01:07:56;;;;;;;12.00;10.90;;;22.10;99.90;;;;;;6149335;23;20528;-80
2023/06/27 01:10:34;;;;;;;13.13;11.13;;;22.10;99.90;;;;;;6149128;23;20370;-80
2023/06/27 01:13:09;;;;;;;12.10;10.97;;;22.00;99.90;;;;;;6122047;23;20452;-80
2023/06/27 01:15:35;;;;;;;13.13;11.83;;;22.00;99.90;;;;;;6149756;23;20392;-80
2023/06/27 01:18:02;;;;;;;13.17;11.80;;;22.00;99.90;;;;;;6149602;23;20408;-80
2023/06/27 01:20:29;;;;;;;12.63;11.30;;;21.90;99.90;;;;;;6149155;23;20388;-80
2023/06/27 01:23:21;;;;;;;12.30;10.73;;;21.90;99.90;;;;;;6149503;23;20649;-80
2023/06/27 01:25:49;;;;;;;13.10;11.80;;;21.90;99.90;;;;;;6123393;23;20493;-80
2023/06/27 01:28:15;;;;;;;11.87;10.60;;;21.90;99.90;;;;;;6123891;23;21130;-80
2023/06/27 01:30:43;;;;;;;12.37;11.13;;;21.90;99.90;;;;;;6122802;23;20397;-80
2023/06/27 01:33:24;;;;;;;14.27;10.50;;;21.80;99.90;;;;;;6123057;23;20202;-80
2023/06/27 01:36:23;;;;;;;12.40;11.10;;;21.80;99.90;;;;;;6123518;23;20818;-80
2023/06/27 01:38:56;;;;;;;12.20;10.90;;;21.80;99.90;;;;;;6058892;23;20743;-80
2023/06/27 01:41:23;;;;;;;11.30;10.20;;;21.80;99.90;;;;;;6149538;23;20535;-80
2023/06/27 01:43:52;;;;;;;12.70;10.70;;;21.70;99.90;;;;;;6123122;23;20400;-80
2023/06/27 01:46:19;;;;;;;12.40;11.07;;;21.70;99.90;;;;;;6122708;23;20425;-80
2023/06/27 01:48:46;;;;;;;11.77;10.57;;;21.70;99.90;;;;;;6122440;23;20433;-80
2023/06/27 01:51:12;;;;;;;19.73;11.83;;;21.60;99.90;;;;;;6123412;23;20425;-80
2023/06/27 01:53:38;;;;;;;13.03;11.63;;;21.60;99.90;;;;;;6149503;23;20400;-80
2023/06/27 01:56:06;;;;;;;15.97;11.87;;;21.50;99.90;;;;;;6121347;23;20706;-80
2023/06/27 01:58:31;;;;;;;14.30;11.30;;;21.50;99.90;;;;;;6149330;23;20661;-80
2023/06/27 02:00:57;;;;;;;11.70;10.50;;;21.50;99.90;;;;;;6123162;23;20441;-80
2023/06/27 02:03:23;;;;;;;13.70;12.30;;;21.50;99.90;;;;;;6122490;23;20190;-80
2023/06/27 02:05:49;;;;;;;12.07;10.77;;;21.40;99.90;;;;;;6148913;23;20250;-80
2023/06/27 02:08:14;;;;;;;15.20;11.10;;;21.40;99.90;;;;;;6123404;23;20171;-80
2023/06/27 02:10:40;;;;;;;12.93;10.80;;;21.40;99.90;;;;;;6148809;23;20620;-80
2023/06/27 02:13:06;;;;;;;12.27;11.00;;;21.30;99.90;;;;;;6122848;23;20211;-80
2023/06/27 02:15:31;;;;;;;11.47;10.27;;;21.30;99.90;;;;;;6122489;23;20194;-80
2023/06/27 02:17:58;;;;;;;11.47;9.83;;;21.30;99.90;;;;;;6148034;23;20156;-80
2023/06/27 02:20:24;;;;;;;12.53;11.23;;;21.20;99.90;;;;;;6122650;23;20159;-80
2023/06/27 02:22:50;;;;;;;11.63;9.60;;;21.20;99.90;;;;;;6122452;23;20403;-80
2023/06/27 02:25:15;;;;;;;11.40;10.20;;;21.20;99.90;;;;;;6122261;23;20159;-80
2023/06/27 02:27:41;;;;;;;17.00;11.07;;;21.20;99.90;;;;;;6149107;23;20471;-80
2023/06/27 02:30:07;;;;;;;16.83;11.37;;;21.20;99.90;;;;;;6148695;23;20207;-80
2023/06/27 02:32:33;;;;;;;11.90;10.60;;;21.20;99.90;;;;;;6122733;23;20226;-80
2023/06/27 02:34:58;;;;;;;12.13;10.87;;;21.20;99.90;;;;;;6122365;23;20381;-80
2023/06/27 02:37:24;;;;;;;14.00;12.60;;;21.20;99.90;;;;;;6149414;23;20261;-80
2023/06/27 02:39:52;;;;;;;16.47;11.47;;;21.20;99.90;;;;;;6148822;23;20422;-80
2023/06/27 02:42:18;;;;;;;13.17;11.77;;;21.20;99.90;;;;;;6148904;23;20683;-80
2023/06/27 02:44:43;;;;;;;11.53;10.10;;;21.20;99.90;;;;;;6122846;23;20429;-80
2023/06/27 02:47:09;;;;;;;11.67;10.37;;;21.20;99.90;;;;;;6122086;23;20183;-80
2023/06/27 02:49:35;;;;;;;15.30;12.10;;;21.10;99.90;;;;;;6121911;23;20831;-81
2023/06/27 02:52:00;;;;;;;13.73;11.43;;;21.10;99.90;;;;;;6148461;23;20640;-80
2023/06/27 02:54:26;;;;;;;16.67;10.97;;;21.10;99.90;;;;;;6148911;23;20156;-81
2023/06/27 02:56:51;;;;;;;14.53;10.80;;;21.10;99.90;;;;;;6147704;23;20809;-81
2023/06/27 02:59:17;;;;;;;12.50;11.20;;;21.00;99.90;;;;;;6148405;23;20205;-81
2023/06/27 03:01:43;;;;;;;13.27;11.07;;;21.10;99.90;;;;;;6122500;23;20175;-81
2023/06/27 03:04:11;;;;;;;11.83;10.63;;;21.10;99.90;;;;;;6121637;23;20171;-80
2023/06/27 03:06:37;;;;;;;14.20;10.07;;;21.20;99.90;;;;;;6148788;23;20186;-81
2023/06/27 03:09:03;;;;;;;13.13;10.80;;;21.20;99.90;;;;;;6122310;23;20397;-81
2023/06/27 03:11:28;;;;;;;14.30;10.70;;;21.20;99.90;;;;;;6147686;23;20245;-81
2023/06/27 03:13:54;;;;;;;11.07;9.80;;;21.20;99.90;;;;;;6122274;23;20160;-81
2023/06/27 03:16:20;;;;;;;11.53;10.33;;;21.20;99.90;;;;;;6147879;23;20167;-80
2023/06/27 03:18:45;;;;;;;13.33;11.10;;;21.20;99.90;;;;;;6148401;23;20245;-81
2023/06/27 03:21:11;;;;;;;12.73;11.23;;;21.20;99.90;;;;;;6121949;23;20178;-81
2023/06/27 03:23:37;;;;;;;11.97;10.37;;;21.20;99.90;;;;;;6148450;23;20170;-81
2023/06/27 03:26:03;;;;;;;15.00;9.67;;;21.30;99.90;;;;;;6122293;23;20535;-81
2023/06/27 03:28:28;;;;;;;13.70;11.23;;;21.30;99.90;;;;;;6122223;23;20170;-81
2023/06/27 03:30:54;;;;;;;15.83;10.90;;;21.30;99.90;;;;;;6147931;23;20551;-81
2023/06/27 03:33:20;;;;;;;12.90;11.60;;;21.30;99.90;;;;;;6122510;23;20221;-80
2023/06/27 03:35:45;;;;;;;12.37;11.17;;;21.40;99.90;;;;;;6121612;23;20258;-81
2023/06/27 03:38:11;;;;;;;12.80;11.60;;;21.40;99.90;;;;;;6148763;23;20528;-81
2023/06/27 03:40:37;;;;;;;11.73;10.53;;;21.40;99.90;;;;;;6147603;23;20159;-81
2023/06/27 03:43:02;;;;;;;13.67;11.03;;;21.50;99.90;;;;;;6147581;23;20488;-80
2023/06/27 03:45:28;;;;;;;15.43;10.80;;;21.50;99.90;;;;;;6148111;23;20151;-81
2023/06/27 03:47:54;;;;;;;12.03;10.83;;;21.50;99.90;;;;;;6122222;23;20229;-81
2023/06/27 03:50:20;;;;;;;10.90;9.80;;;21.50;99.90;;;;;;6122083;23;20191;-81
2023/06/27 03:52:45;;;;;;;13.87;10.37;;;21.50;99.90;;;;;;6122622;23;20301;-80
2023/06/27 03:55:11;;;;;;;13.33;10.13;;;21.60;99.90;;;;;;6148097;23;20155;-81
2023/06/27 03:57:37;;;;;;;15.33;10.67;;;21.60;99.90;;;;;;6147601;23;20225;-79
2023/06/27 04:00:07;;;;;;;14.70;10.13;;;21.60;99.90;;;;;;6122122;23;20159;-79
2023/06/27 04:02:33;;;;;;;12.63;10.80;;;21.60;99.90;;;;;;6147972;23;20532;-80
2023/06/27 04:04:58;;;;;;;13.97;11.73;;;21.60;99.90;;;;;;6121099;23;20424;-79
2023/06/27 04:07:24;;;;;;;13.67;12.27;;;21.60;99.90;;;;;;6122411;23;20179;-80
2023/06/27 04:09:50;;;;;;;11.90;10.60;;;21.60;99.90;;;;;;6121110;23;20607;-79
2023/06/27 04:12:15;;;;;;;23.00;16.67;;;21.70;99.90;;;;;;6147525;23;20366;-80
2023/06/27 04:14:41;;;;;;;15.80;12.57;;;21.70;99.90;;;;;;6121657;23;20151;-79
2023/06/27 04:17:06;;;;;;;14.53;11.83;;;21.80;99.90;;;;;;6147799;23;20250;-80
2023/06/27 04:19:32;;;;;;;11.90;10.60;;;21.80;99.90;;;;;;6146230;23;20439;-79
2023/06/27 04:21:58;;;;;;;12.37;9.63;;;21.80;99.90;;;;;;6147101;23;20171;-80
2023/06/27 04:24:23;;;;;;;10.90;9.20;;;21.90;99.90;;;;;;6147311;23;20286;-80
2023/06/27 04:26:49;;;;;;;11.67;10.00;;;21.90;99.90;;;;;;6147698;23;20510;-80
2023/06/27 04:29:14;;;;;;;13.30;10.70;;;21.90;99.90;;;;;;6120678;23;20605;-79
2023/06/27 04:31:40;;;;;;;11.90;10.70;;;22.00;99.90;;;;;;6121888;23;20209;-80
2023/06/27 04:34:09;;;;;;;10.80;9.40;;;22.00;99.90;;;;;;6147643;23;20159;-80
2023/06/27 04:36:36;;;;;;;45.00;30.77;;;22.10;99.90;;;;;;6148295;23;20230;-79
2023/06/27 04:39:03;;;;;;;14.47;11.50;;;22.10;99.90;;;;;;6120904;23;20961;-79
2023/06/27 04:41:29;;;;;;;12.30;9.80;;;22.20;99.90;;;;;;6147782;23;20863;-79
2023/06/27 04:43:56;;;;;;;12.50;10.27;;;22.20;99.90;;;;;;6121439;23;20572;-79
2023/06/27 04:46:22;;;;;;;11.60;10.40;;;22.20;99.90;;;;;;6120579;23;20237;-79
2023/06/27 04:48:47;;;;;;;16.37;9.33;;;22.30;99.90;;;;;;6120765;23;20445;-79
2023/06/27 04:51:13;;;;;;;12.37;10.13;;;22.30;99.90;;;;;;6148071;23;20621;-79
2023/06/27 04:53:40;;;;;;;10.40;8.43;;;22.30;99.90;;;;;;6121890;23;20245;-79
2023/06/27 04:56:06;;;;;;;10.40;9.27;;;22.30;99.90;;;;;;6120933;23;20185;-79
2023/06/27 04:58:32;;;;;;;10.40;8.93;;;22.40;99.90;;;;;;6146745;23;20922;-79
2023/06/27 05:00:57;;;;;;;8.90;8.00;;;22.40;99.90;;;;;;6120762;23;20266;-79
2023/06/27 05:03:23;;;;;;;9.33;8.33;;;22.50;99.90;;;;;;6147836;23;20436;-79
2023/06/27 05:05:49;;;;;;;11.40;8.50;;;22.60;99.90;;;;;;6120212;23;20199;-79
2023/06/27 05:08:15;;;;;;;12.00;9.17;;;22.60;99.90;;;;;;6148285;23;20175;-79
2023/06/27 05:10:40;;;;;;;10.67;8.77;;;22.70;99.90;;;;;;6120550;23;20626;-79
2023/06/27 05:13:06;;;;;;;9.50;8.33;;;22.80;99.90;;;;;;6121729;23;20337;-79
2023/06/27 05:15:31;;;;;;;11.63;9.73;;;22.90;99.90;;;;;;6121100;23;20825;-79
2023/06/27 05:18:06;;;;;;;10.40;8.47;;;23.00;99.90;;;;;;6120202;23;20164;-79
2023/06/27 05:20:32;;;;;;;11.53;8.10;;;23.10;99.90;;;;;;6146850;23;20161;-79
2023/06/27 05:23:01;;;;;;;14.50;9.53;;;23.20;99.90;;;;;;6145107;23;20893;-79
2023/06/27 05:25:27;;;;;;;10.53;8.27;;;23.30;99.90;;;;;;6115477;23;20399;-79
2023/06/27 05:27:54;;;;;;;11.77;8.80;;;23.40;99.90;;;;;;6115392;23;20441;-79
2023/06/27 05:30:20;;;;;;;9.43;7.90;;;23.50;99.90;;;;;;6116208;23;20474;-79
2023/06/27 05:32:45;;;;;;;10.70;8.27;;;23.60;99.90;;;;;;6142190;23;20489;-79
2023/06/27 05:35:11;;;;;;;10.33;8.30;;;23.70;99.90;;;;;;6141503;23;20162;-79
2023/06/27 05:37:38;;;;;;;10.00;7.10;;;23.70;99.90;;;;;;6118729;23;20560;-80
2023/06/27 05:40:04;;;;;;;9.47;7.17;;;23.80;99.90;;;;;;6116290;23;20649;-79
2023/06/27 05:42:30;;;;;;;8.60;6.03;;;23.90;99.90;;;;;;6145015;23;20415;-79
2023/06/27 05:44:56;;;;;;;7.40;6.70;;;24.00;99.90;;;;;;6119158;23;20419;-79
2023/06/27 05:47:22;;;;;;;10.27;7.50;;;24.20;99.90;;;;;;6143595;23;20265;-83
2023/06/27 05:49:48;;;;;;;7.03;6.43;;;24.20;99.90;;;;;;6144045;23;20579;-81
2023/06/27 05:52:14;;;;;;;7.57;6.87;;;24.30;99.90;;;;;;6143216;23;20198;-82
2023/06/27 05:54:41;;;;;;;6.83;6.13;;;24.40;99.90;;;;;;6118838;23;20391;-79
2023/06/27 05:57:07;;;;;;;7.10;6.33;;;24.60;99.90;;;;;;6115490;23;20205;-81
2023/06/27 05:59:33;;;;;;;7.50;6.00;;;24.70;99.90;;;;;;6117064;23;20415;-79
2023/06/27 06:01:58;;;;;;;6.53;5.80;;;24.80;99.90;;;;;;6143222;23;21013;-79
2023/06/27 06:04:24;;;;;;;7.23;6.00;;;24.90;99.90;;;;;;6119316;23;20814;-81
2023/06/27 06:06:50;;;;;;;18.70;5.87;;;25.00;99.90;;;;;;6145799;23;20170;-81
2023/06/27 06:09:16;;;;;;;6.50;4.97;;;25.00;99.90;;;;;;6145393;23;20163;-78
2023/06/27 06:11:41;;;;;;;7.27;5.93;;;25.10;99.90;;;;;;6146072;23;20187;-80
2023/06/27 06:14:07;;;;;;;6.93;5.37;;;25.10;99.90;;;;;;6119333;23;20167;-85
2023/06/27 06:16:33;;;;;;;6.13;5.37;;;25.20;99.90;;;;;;6119042;23;20198;-83
2023/06/27 06:19:00;;;;;;;6.10;5.50;;;25.40;99.90;;;;;;6117734;23;20152;-81
2023/06/27 06:21:27;;;;;;;6.37;5.70;;;25.50;99.90;;;;;;6119264;23;20602;-80
2023/06/27 06:23:52;;;;;;;8.20;5.50;;;25.60;99.90;;;;;;6145120;23;20401;-80
2023/06/27 06:26:18;;;;;;;8.17;5.03;;;25.60;99.90;;;;;;6117180;23;20409;-78
2023/06/27 06:28:44;;;;;;;5.57;4.70;;;25.80;99.90;;;;;;6143546;23;20152;-80
2023/06/27 06:31:16;;;;;;;10.40;8.47;;;25.90;99.90;;;;;;6130049;23;20186;-80
2023/06/27 06:33:45;;;;;;;7.03;6.13;;;26.00;99.90;;;;;;6119360;23;20151;-78
2023/06/27 06:36:11;;;;;;;5.53;5.03;;;26.10;99.90;;;;;;6104123;23;21014;-81
2023/06/27 06:38:36;;;;;;;5.20;4.70;;;26.20;99.90;;;;;;6114770;23;20388;-80
2023/06/27 06:41:03;;;;;;;5.50;5.00;;;26.30;99.90;;;;;;6116623;23;20409;-80
2023/06/27 06:43:28;;;;;;;5.77;5.17;;;26.40;99.90;;;;;;6091548;23;20159;-80
2023/06/27 06:45:54;;;;;;;5.30;4.30;;;26.60;99.90;;;;;;6116966;23;20851;-80
2023/06/27 06:48:21;;;;;;;6.47;4.70;;;26.60;99.90;;;;;;6104725;23;20207;-78
2023/06/27 06:50:49;;;;;;;5.50;5.00;;;26.80;99.90;;;;;;6116092;23;20899;-78
2023/06/27 06:53:14;;;;;;;15.77;5.63;;;26.90;99.90;;;;;;6116588;23;20460;-77
2023/06/27 06:55:40;;;;;;;7.30;4.67;;;27.00;99.90;;;;;;6116331;23;20401;-80
2023/06/27 06:58:05;;;;;;;11.27;5.10;;;27.00;99.90;;;;;;6142014;23;20160;-78
2023/06/27 07:00:34;;;;;;;7.50;5.70;;;27.10;99.90;;;;;;6144469;23;20162;-81
2023/06/27 07:02:59;;;;;;;5.40;4.60;;;27.20;99.90;;;;;;6141578;23;20167;-78
2023/06/27 07:05:25;;;;;;;4.90;4.40;;;27.30;99.90;;;;;;6143858;23;20377;-78
2023/06/27 07:07:51;;;;;;;5.20;4.70;;;27.40;99.90;;;;;;6118041;23;20218;-80
2023/06/27 07:10:16;;;;;;;6.50;4.77;;;27.40;99.90;;;;;;6114265;23;20315;-79
2023/06/27 07:12:42;;;;;;;5.20;4.70;;;27.50;99.90;;;;;;6114351;23;20295;-77
2023/06/27 07:15:08;;;;;;;5.20;4.43;;;27.60;99.90;;;;;;6142468;23;20161;-78
2023/06/27 07:17:34;;;;;;;11.40;4.80;;;27.60;99.90;;;;;;6114973;23;20288;-80
2023/06/27 07:20:00;;;;;;;5.10;4.60;;;27.80;99.90;;;;;;6139911;23;20418;-80
2023/06/27 07:22:27;;;;;;;5.20;4.70;;;27.80;99.90;;;;;;6140762;23;20186;-78
2023/06/27 07:24:52;;;;;;;6.07;4.70;;;27.90;99.90;;;;;;6142085;23;20439;-78
2023/06/27 07:27:18;;;;;;;9.20;5.30;;;28.00;99.90;;;;;;6140678;23;20536;-81
2023/06/27 07:29:44;;;;;;;6.40;4.67;;;28.10;99.90;;;;;;6114514;23;20224;-78
2023/06/27 07:32:13;;;;;;;5.37;4.87;;;28.10;98.70;;;;;;6141956;23;20464;-77
2023/06/27 07:34:39;;;;;;;5.50;5.00;;;28.20;98.40;;;;;;6140475;23;20407;-80
2023/06/27 07:37:08;;;;;;;5.50;4.70;;;28.20;98.40;;;;;;6141238;23;20404;-78
2023/06/27 07:39:33;;;;;;;10.40;5.20;;;28.30;98.60;;;;;;6140973;23;20581;-81
2023/06/27 07:41:59;;;;;;;33.07;26.87;;;28.30;98.40;;;;;;6142970;23;20481;-78
2023/06/27 07:44:25;;;;;;;7.83;5.70;;;28.30;98.10;;;;;;6119225;23;20194;-78
2023/06/27 07:46:51;;;;;;;6.00;5.10;;;28.40;97.60;;;;;;6118681;23;20184;-80
2023/06/27 07:49:17;;;;;;;5.80;5.20;;;28.40;97.70;;;;;;6145637;23;20471;-78
2023/06/27 07:51:43;;;;;;;5.73;5.00;;;28.50;97.80;;;;;;6116192;23;20645;-80
2023/06/27 07:54:09;;;;;;;6.03;4.90;;;28.60;98.00;;;;;;6143302;23;20703;-80
2023/06/27 07:56:35;;;;;;;5.40;4.90;;;28.70;98.30;;;;;;6143032;23;20183;-78
2023/06/27 07:59:02;;;;;;;6.10;5.00;;;28.70;98.40;;;;;;6143056;23;20402;-78
2023/06/27 08:01:28;;;;;;;5.37;4.87;;;28.70;98.30;;;;;;6143922;23;20596;-80
2023/06/27 08:03:54;;;;;;;6.97;5.40;;;28.80;98.40;;;;;;6118872;23;20592;-79
2023/06/27 08:06:19;;;;;;;6.67;4.60;;;28.90;97.80;;;;;;6143885;23;20430;-78
2023/06/27 08:08:45;;;;;;;6.57;5.13;;;28.90;97.60;;;;;;6118057;23;20555;-79
2023/06/27 08:11:11;;;;;;;5.30;4.80;;;28.90;97.40;;;;;;6142502;23;20204;-80
2023/06/27 08:13:41;;;;;;;6.00;4.80;;;28.90;97.50;;;;;;6114791;23;20175;-78
2023/06/27 08:16:09;;;;;;;5.63;5.07;;;28.80;97.60;;;;;;6141428;23;20649;-78
2023/06/27 08:18:35;;;;;;;5.33;4.83;;;28.80;97.40;;;;;;6142057;23;20487;-80
2023/06/27 08:21:01;;;;;;;7.00;5.80;;;28.80;97.70;;;;;;6111455;23;20468;-78
2023/06/27 08:23:27;;;;;;;6.80;6.00;;;28.90;97.90;;;;;;6140120;23;20547;-78
2023/06/27 08:25:54;;;;;;;6.33;5.73;;;28.80;98.00;;;;;;6113792;23;20616;-78
2023/06/27 08:28:20;;;;;;;7.30;5.80;;;28.90;98.20;;;;;;6113043;23;20784;-78
2023/06/27 08:30:46;;;;;;;6.13;5.53;;;28.90;98.20;;;;;;6137720;23;20400;-80
2023/06/27 08:33:12;;;;;;;6.93;5.97;;;28.90;98.20;;;;;;6137996;23;20499;-80
2023/06/27 08:35:38;;;;;;;8.20;6.20;;;28.80;98.20;;;;;;6134044;23;20148;-78
2023/06/27 08:38:04;;;;;;;8.00;5.97;;;28.80;98.30;;;;;;6135385;23;20429;-80
2023/06/27 08:40:36;;;;;;;6.13;5.53;;;28.80;98.30;;;;;;6109298;23;20379;-79
2023/06/27 08:43:04;;;;;;;7.47;6.47;;;28.70;98.50;;;;;;6137571;23;20396;-80
2023/06/27 08:45:30;;;;;;;7.67;6.97;;;28.70;98.70;;;;;;6110733;23;20554;-80
2023/06/27 08:47:57;;;;;;;9.53;6.63;;;28.70;99.00;;;;;;6108954;23;20658;-80
2023/06/27 08:50:26;;;;;;;8.00;7.00;;;28.70;99.60;;;;;;6137478;23;20459;-78
2023/06/27 08:52:55;;;;;;;7.10;6.47;;;28.60;99.80;;;;;;6110809;23;20543;-77
2023/06/27 08:55:41;;;;;;;9.87;6.70;;;28.60;99.90;;;;;;6136652;23;20873;-80
2023/06/27 08:58:11;;;;;;;9.33;6.60;;;28.60;99.90;;;;;;6142331;23;20386;-80
2023/06/27 09:00:38;;;;;;;7.73;6.93;;;28.50;99.90;;;;;;6141856;23;20396;-81
2023/06/27 09:03:04;;;;;;;10.33;7.47;;;28.40;99.90;;;;;;6142124;23;20386;-80
2023/06/27 09:05:33;;;;;;;11.40;8.20;;;28.30;99.90;;;;;;6116705;23;20570;-79
2023/06/27 09:07:59;;;;;;;9.17;8.10;;;28.30;99.90;;;;;;6140401;23;20432;-78
2023/06/27 09:10:25;;;;;;;13.07;8.23;;;28.20;99.90;;;;;;6138726;23;20866;-80
2023/06/27 09:12:54;;;;;;;14.27;8.97;;;28.10;99.90;;;;;;6141317;23;20196;-80
2023/06/27 09:15:20;;;;;;;9.63;8.60;;;28.00;99.90;;;;;;6114499;23;20389;-80
2023/06/27 09:17:47;;;;;;;10.20;9.00;;;27.90;99.90;;;;;;6141207;23;20741;-78
2023/06/27 09:20:19;;;;;;;10.03;8.97;;;27.80;99.90;;;;;;6143439;23;20649;-80
2023/06/27 09:22:45;;;;;;;10.57;9.57;;;27.70;99.90;;;;;;6135884;23;20391;-80
2023/06/27 09:25:19;;;;;;;10.97;9.90;;;27.60;99.90;;;;;;6141790;23;20376;-78
2023/06/27 09:27:45;;;;;;;10.13;9.23;;;27.50;99.90;;;;;;6141991;23;20406;-78
2023/06/27 09:30:12;;;;;;;10.73;8.87;;;27.40;99.90;;;;;;6140414;23;20375;-80
2023/06/27 09:32:55;;;;;;;9.83;8.83;;;27.40;99.90;;;;;;6115754;23;20609;-80
2023/06/27 09:35:23;;;;;;;11.13;9.50;;;27.30;99.90;;;;;;6144612;23;20517;-77
2023/06/27 09:37:49;;;;;;;12.17;10.90;;;27.20;99.90;;;;;;6117925;23;20409;-77
2023/06/27 09:40:27;;;;;;;20.90;18.00;;;27.20;99.90;;;;;;6143012;23;20590;-78
2023/06/27 09:42:58;;;;;;;13.50;12.20;;;27.20;99.90;;;;;;6116996;23;20685;-78
2023/06/27 09:45:29;;;;;;;12.03;10.63;;;27.10;99.90;;;;;;6116400;23;20969;-78
2023/06/27 09:47:54;;;;;;;12.17;11.07;;;27.00;99.90;;;;;;6141167;23;20456;-80
2023/06/27 09:50:31;;;;;;;10.77;9.67;;;27.00;99.90;;;;;;6142400;23;20370;-80
2023/06/27 09:53:02;;;;;;;10.13;9.07;;;26.90;99.90;;;;;;6143340;23;20490;-80
2023/06/27 09:55:29;;;;;;;12.67;10.07;;;26.90;99.90;;;;;;6144522;23;20688;-80
2023/06/27 09:57:56;;;;;;;11.17;9.83;;;26.80;99.90;;;;;;6118696;23;20405;-78
2023/06/27 10:00:22;;;;;;;10.13;9.23;;;26.70;99.90;;;;;;6144327;23;20446;-80
2023/06/27 10:02:51;;;;;;;11.27;10.17;;;26.70;99.90;;;;;;6144789;23;20416;-80
2023/06/27 10:05:21;;;;;;;13.13;9.60;;;26.70;99.90;;;;;;6114618;23;20435;-78
2023/06/27 10:07:52;;;;;;;11.03;10.03;;;26.60;99.90;;;;;;6138162;23;20391;-80
2023/06/27 10:10:20;;;;;;;11.10;10.10;;;26.50;99.90;;;;;;6140917;23;20365;-78
2023/06/27 10:12:47;;;;;;;10.53;9.53;;;26.50;99.90;;;;;;6115744;23;20456;-80
2023/06/27 10:15:12;;;;;;;11.23;10.13;;;26.40;99.90;;;;;;6140726;23;20362;-78
2023/06/27 10:17:38;;;;;;;11.37;10.27;;;26.30;99.90;;;;;;6139418;23;20451;-80
2023/06/27 10:20:11;;;;;;;11.53;10.43;;;26.20;99.90;;;;;;6101287;23;20570;-78
2023/06/27 10:22:40;;;;;;;12.27;10.93;;;26.10;99.90;;;;;;6139857;23;20795;-78
2023/06/27 10:25:07;;;;;;;12.03;10.83;;;26.10;99.90;;;;;;6113787;23;20416;-77
2023/06/27 10:27:38;;;;;;;13.37;11.97;;;26.00;99.90;;;;;;6140471;23;20491;-78
2023/06/27 10:30:26;;;;;;;13.10;11.90;;;25.90;99.90;;;;;;6142989;23;20385;-78
2023/06/27 10:33:06;;;;;;;12.67;11.37;;;25.80;99.90;;;;;;6143683;23;20444;-80
2023/06/27 10:35:31;;;;;;;11.13;10.13;;;25.80;99.90;;;;;;6144127;23;20494;-79
2023/06/27 10:38:08;;;;;;;13.20;11.90;;;25.80;99.90;;;;;;6143412;23;20385;-77
2023/06/27 10:41:05;;;;;;;13.33;12.10;;;25.80;99.90;;;;;;6140920;23;20155;-78
2023/06/27 10:43:46;;;;;;;12.60;11.30;;;25.80;99.90;;;;;;6103506;23;20593;-80
2023/06/27 10:46:17;;;;;;;12.07;10.97;;;25.80;99.90;;;;;;6141391;23;20673;-78
2023/06/27 10:48:51;;;;;;;13.47;12.27;;;25.80;99.90;;;;;;6142896;23;20460;-78
2023/06/27 10:51:21;;;;;;;12.67;11.47;;;25.80;99.90;;;;;;6141855;23;20404;-80
2023/06/27 10:54:09;;;;;;;13.40;12.00;;;25.80;99.90;;;;;;6142859;23;20404;-78
2023/06/27 10:56:37;;;;;;;13.77;12.40;;;25.80;99.90;;;;;;6142022;23;20920;-80
2023/06/27 10:59:04;;;;;;;13.60;12.40;;;25.80;99.90;;;;;;6116488;23;20448;-78
2023/06/27 11:01:31;;;;;;;12.23;11.03;;;25.80;99.90;;;;;;6116469;23;20416;-79
2023/06/27 11:03:57;;;;;;;13.03;11.83;;;25.80;99.90;;;;;;6142120;23;20443;-80
2023/06/27 11:06:46;;;;;;;12.63;11.40;;;25.80;99.90;;;;;;6142883;23;20906;-80
2023/06/27 11:09:21;;;;;;;12.03;10.87;;;25.80;99.90;;;;;;6145285;23;20723;-80
2023/06/27 11:11:55;;;;;;;12.17;10.97;;;25.80;99.90;;;;;;6113444;23;20440;-80
2023/06/27 11:14:40;;;;;;;12.00;10.83;;;25.80;99.90;;;;;;6142613;23;20726;-80
2023/06/27 11:17:06;;;;;;;11.83;10.73;;;25.90;99.90;;;;;;6143106;23;20405;-78
2023/06/27 11:19:34;;;;;;;12.07;10.90;;;25.90;99.90;;;;;;6142022;23;20428;-79
2023/06/27 11:22:01;;;;;;;13.20;9.90;;;26.00;99.90;;;;;;6142900;23;20405;-78
2023/06/27 11:24:27;;;;;;;10.63;9.73;;;26.10;99.90;;;;;;6117036;23;20937;-80
2023/06/27 11:26:53;;;;;;;11.80;10.53;;;26.10;99.90;;;;;;6142281;23;20615;-80
2023/06/27 11:29:20;;;;;;;11.43;10.27;;;26.20;99.90;;;;;;6110124;23;20396;-78
2023/06/27 11:31:46;;;;;;;11.37;10.30;;;26.20;99.90;;;;;;6115971;23;21137;-78
2023/06/27 11:34:14;;;;;;;10.60;9.67;;;26.40;99.90;;;;;;6143420;23;20421;-78
2023/06/27 11:36:40;;;;;;;11.80;10.70;;;26.40;99.90;;;;;;6139390;23;20397;-78
2023/06/27 11:39:06;;;;;;;12.00;10.80;;;26.50;99.90;;;;;;6144991;23;20392;-78
2023/06/27 11:41:31;;;;;;;12.17;11.03;;;26.60;99.90;;;;;;6118689;23;20238;-80
2023/06/27 11:43:57;;;;;;;12.30;11.10;;;26.60;99.90;;;;;;6144345;23;20711;-80
2023/06/27 11:46:23;;;;;;;12.40;10.63;;;26.70;99.90;;;;;;6119782;23;20183;-78
2023/06/27 11:48:49;;;;;;;12.00;10.90;;;26.70;99.90;;;;;;6116889;23;20486;-80
2023/06/27 11:51:14;;;;;;;12.00;10.90;;;26.70;99.90;;;;;;6118097;23;20267;-80
2023/06/27 11:53:50;;;;;;;11.60;10.57;;;26.80;99.90;;;;;;6118908;23;20393;-80
2023/06/27 11:56:17;;;;;;;12.93;11.63;;;26.90;99.90;;;;;;6139715;23;20780;-78
2023/06/27 11:58:50;;;;;;;13.80;12.57;;;26.90;99.90;;;;;;6142472;23;20399;-78
2023/06/27 12:01:16;;;;;;;13.00;11.90;;;27.00;99.90;;;;;;6143134;23;20403;-78
2023/06/27 12:03:47;;;;;;;13.17;11.90;;;27.10;99.90;;;;;;6143358;23;20448;-80
2023/06/27 12:06:33;;;;;;;13.97;12.77;;;27.20;99.90;;;;;;6143524;23;20464;-78
2023/06/27 12:08:58;;;;;;;13.93;12.63;;;27.20;99.90;;;;;;6116874;23;20640;-78
2023/06/27 12:11:34;;;;;;;14.57;12.90;;;27.30;99.90;;;;;;6144546;23;20450;-79
2023/06/27 12:14:03;;;;;;;11.73;10.53;;;27.40;99.90;;;;;;6144376;23;20208;-80
2023/06/27 12:16:33;;;;;;;12.07;10.97;;;27.50;99.90;;;;;;6143241;23;20392;-78
2023/06/27 12:19:08;;;;;;;11.50;10.27;;;27.50;99.90;;;;;;6116277;23;20617;-79
2023/06/27 12:21:34;;;;;;;11.67;10.30;;;27.70;99.90;;;;;;6144665;23;20457;-79
2023/06/27 12:24:00;;;;;;;11.60;10.50;;;27.80;99.90;;;;;;6145342;23;20888;-80
2023/06/27 12:26:26;;;;;;;10.70;9.50;;;27.80;99.90;;;;;;6119183;23;20807;-78
2023/06/27 12:28:59;;;;;;;10.27;9.27;;;27.90;99.90;;;;;;6117980;23;20416;-80
2023/06/27 12:31:26;;;;;;;11.37;10.27;;;27.90;99.90;;;;;;6144340;23;20205;-78
2023/06/27 12:33:52;;;;;;;11.10;10.10;;;28.00;99.90;;;;;;6119501;23;21002;-80
2023/06/27 12:36:19;;;;;;;10.53;9.60;;;28.00;99.90;;;;;;6145630;23;20499;-80